sensor_id;sensor_type;location;lat;lon;timestamp;pressure;altitude;pressure_sealevel;temperature;humidity
34742;BME280;20968;42.696;23.360;2022-12-07T00:02:14;95245.25;;;8.68;71.59
34742;BME280;20968;42.696;23.360;2022-12-07T00:04:39;95239.78;;;8.68;72.01
34742;BME280;20968;42.696;23.360;2022-12-07T00:07:05;95239.59;;;8.72;72.07
34742;BME280;20968;42.696;23.360;2022-12-07T00:09:30;95239.44;;;8.75;72.25
34742;BME280;20968;42.696;23.360;2022-12-07T00:11:56;95237.00;;;8.77;71.85
34742;BME280;20968;42.696;23.360;2022-12-07T00:14:21;95237.28;;;8.79;72.13
34742;BME280;20968;42.696;23.360;2022-12-07T00:16:49;95232.72;;;8.76;71.24
34742;BME280;20968;42.696;23.360;2022-12-07T00:19:16;95233.34;;;8.80;71.76
34742;BME280;20968;42.696;23.360;2022-12-07T00:21:42;95233.91;;;8.84;71.35
34742;BME280;20968;42.696;23.360;2022-12-07T00:24:10;95234.38;;;8.83;71.64
34742;BME280;20968;42.696;23.360;2022-12-07T00:26:37;95228.41;;;8.84;71.61
34742;BME280;20968;42.696;23.360;2022-12-07T00:29:06;95237.09;;;8.92;70.83
34742;BME280;20968;42.696;23.360;2022-12-07T00:31:35;95236.59;;;8.93;71.04
34742;BME280;20968;42.696;23.360;2022-12-07T00:34:04;95239.34;;;8.93;71.20
34742;BME280;20968;42.696;23.360;2022-12-07T00:36:30;95241.94;;;8.97;70.61
34742;BME280;20968;42.696;23.360;2022-12-07T00:38:58;95247.25;;;9.00;71.56
34742;BME280;20968;42.696;23.360;2022-12-07T00:41:25;95240.22;;;8.99;70.63
34742;BME280;20968;42.696;23.360;2022-12-07T00:43:51;95232.03;;;8.90;71.25
34742;BME280;20968;42.696;23.360;2022-12-07T00:46:17;95243.63;;;8.94;70.71
34742;BME280;20968;42.696;23.360;2022-12-07T00:48:43;95242.09;;;8.93;70.76
34742;BME280;20968;42.696;23.360;2022-12-07T00:51:11;95229.28;;;8.90;70.71
34742;BME280;20968;42.696;23.360;2022-12-07T00:53:37;95237.25;;;8.88;70.92
34742;BME280;20968;42.696;23.360;2022-12-07T00:56:07;95236.00;;;8.89;71.37
34742;BME280;20968;42.696;23.360;2022-12-07T00:58:33;95223.53;;;8.88;71.03
34742;BME280;20968;42.696;23.360;2022-12-07T01:01:04;95229.78;;;8.89;71.73
34742;BME280;20968;42.696;23.360;2022-12-07T01:03:30;95223.06;;;8.90;71.62
34742;BME280;20968;42.696;23.360;2022-12-07T01:05:56;95225.16;;;8.95;71.40
34742;BME280;20968;42.696;23.360;2022-12-07T01:08:23;95218.25;;;8.99;70.40
34742;BME280;20968;42.696;23.360;2022-12-07T01:10:49;95227.72;;;8.98;70.81
34742;BME280;20968;42.696;23.360;2022-12-07T01:13:22;95224.69;;;8.96;71.32
34742;BME280;20968;42.696;23.360;2022-12-07T01:15:47;95227.56;;;9.02;71.07
34742;BME280;20968;42.696;23.360;2022-12-07T01:18:13;95225.28;;;9.00;70.91
34742;BME280;20968;42.696;23.360;2022-12-07T01:20:38;95223.28;;;9.01;71.28
34742;BME280;20968;42.696;23.360;2022-12-07T01:23:04;95214.28;;;9.00;70.72
34742;BME280;20968;42.696;23.360;2022-12-07T01:25:29;95215.53;;;8.99;70.67
34742;BME280;20968;42.696;23.360;2022-12-07T01:27:55;95208.50;;;8.98;71.07
34742;BME280;20968;42.696;23.360;2022-12-07T01:30:20;95212.78;;;8.99;71.03
34742;BME280;20968;42.696;23.360;2022-12-07T01:32:45;95209.72;;;8.97;71.42
34742;BME280;20968;42.696;23.360;2022-12-07T01:35:11;95209.72;;;8.97;70.44
34742;BME280;20968;42.696;23.360;2022-12-07T01:37:37;95213.69;;;8.96;70.50
34742;BME280;20968;42.696;23.360;2022-12-07T01:40:06;95210.50;;;8.98;71.36
34742;BME280;20968;42.696;23.360;2022-12-07T01:42:32;95206.22;;;8.97;70.58
34742;BME280;20968;42.696;23.360;2022-12-07T01:48:01;95210.31;;;9.01;70.48
34742;BME280;20968;42.696;23.360;2022-12-07T01:50:28;95206.81;;;9.01;71.18
34742;BME280;20968;42.696;23.360;2022-12-07T01:52:56;95200.56;;;9.00;71.00
34742;BME280;20968;42.696;23.360;2022-12-07T01:55:22;95199.66;;;9.03;71.38
34742;BME280;20968;42.696;23.360;2022-12-07T01:57:49;95199.16;;;9.05;70.65
34742;BME280;20968;42.696;23.360;2022-12-07T02:00:16;95196.28;;;8.99;70.51
34742;BME280;20968;42.696;23.360;2022-12-07T02:02:49;95193.06;;;9.01;70.27
34742;BME280;20968;42.696;23.360;2022-12-07T02:05:16;95186.09;;;9.00;70.55
34742;BME280;20968;42.696;23.360;2022-12-07T02:07:43;95192.16;;;9.04;71.17
34742;BME280;20968;42.696;23.360;2022-12-07T02:12:44;95183.16;;;9.03;70.77
34742;BME280;20968;42.696;23.360;2022-12-07T02:15:12;95192.16;;;9.04;70.77
34742;BME280;20968;42.696;23.360;2022-12-07T02:18:01;95184.38;;;9.02;70.86
34742;BME280;20968;42.696;23.360;2022-12-07T02:20:42;95187.88;;;9.03;70.52
34742;BME280;20968;42.696;23.360;2022-12-07T02:26:21;95195.19;;;9.06;70.78
34742;BME280;20968;42.696;23.360;2022-12-07T02:32:07;95182.38;;;9.03;70.52
34742;BME280;20968;42.696;23.360;2022-12-07T02:34:48;95166.69;;;9.03;70.21
34742;BME280;20968;42.696;23.360;2022-12-07T02:40:12;95185.63;;;9.01;70.55
34742;BME280;20968;42.696;23.360;2022-12-07T02:42:46;95177.69;;;9.03;71.26
34742;BME280;20968;42.696;23.360;2022-12-07T02:45:15;95166.38;;;9.01;70.43
34742;BME280;20968;42.696;23.360;2022-12-07T02:47:43;95178.78;;;8.97;71.50
34742;BME280;20968;42.696;23.360;2022-12-07T02:50:10;95181.22;;;8.95;70.53
34742;BME280;20968;42.696;23.360;2022-12-07T02:52:35;95183.03;;;8.98;70.47
34742;BME280;20968;42.696;23.360;2022-12-07T02:55:01;95169.94;;;8.93;70.68
34742;BME280;20968;42.696;23.360;2022-12-07T02:58:07;95173.75;;;8.95;70.40
34742;BME280;20968;42.696;23.360;2022-12-07T03:00:49;95174.69;;;8.92;70.54
34742;BME280;20968;42.696;23.360;2022-12-07T03:03:17;95170.41;;;8.91;71.22
34742;BME280;20968;42.696;23.360;2022-12-07T03:11:26;95151.97;;;8.92;71.21
34742;BME280;20968;42.696;23.360;2022-12-07T03:14:25;95159.13;;;8.89;71.27
34742;BME280;20968;42.696;23.360;2022-12-07T03:17:02;95158.25;;;8.83;69.93
34742;BME280;20968;42.696;23.360;2022-12-07T03:19:32;95153.53;;;8.84;70.50
34742;BME280;20968;42.696;23.360;2022-12-07T03:22:07;95147.63;;;8.76;70.72
34742;BME280;20968;42.696;23.360;2022-12-07T03:24:57;95153.47;;;8.69;71.03
34742;BME280;20968;42.696;23.360;2022-12-07T03:27:26;95152.06;;;8.74;70.06
34742;BME280;20968;42.696;23.360;2022-12-07T03:30:17;95161.53;;;8.73;70.42
34742;BME280;20968;42.696;23.360;2022-12-07T03:33:14;95157.75;;;8.70;71.27
34742;BME280;20968;42.696;23.360;2022-12-07T03:35:45;95162.06;;;8.62;71.18
34742;BME280;20968;42.696;23.360;2022-12-07T03:38:20;95162.78;;;8.63;71.15
34742;BME280;20968;42.696;23.360;2022-12-07T03:43:31;95158.81;;;8.64;70.93
34742;BME280;20968;42.696;23.360;2022-12-07T03:48:56;95160.06;;;8.63;70.58
34742;BME280;20968;42.696;23.360;2022-12-07T03:51:30;95157.31;;;8.63;71.68
34742;BME280;20968;42.696;23.360;2022-12-07T03:56:32;95162.06;;;8.62;71.18
34742;BME280;20968;42.696;23.360;2022-12-07T03:58:58;95148.19;;;8.57;70.65
34742;BME280;20968;42.696;23.360;2022-12-07T04:01:24;95148.69;;;8.55;71.70
34742;BME280;20968;42.696;23.360;2022-12-07T04:03:49;95147.16;;;8.54;71.36
34742;BME280;20968;42.696;23.360;2022-12-07T04:06:15;95150.63;;;8.55;70.81
34742;BME280;20968;42.696;23.360;2022-12-07T04:08:41;95146.09;;;8.52;71.52
34742;BME280;20968;42.696;23.360;2022-12-07T04:11:06;95148.06;;;8.51;71.46
34742;BME280;20968;42.696;23.360;2022-12-07T04:13:31;95149.28;;;8.50;71.00
34742;BME280;20968;42.696;23.360;2022-12-07T04:16:17;95145.06;;;8.50;71.11
34742;BME280;20968;42.696;23.360;2022-12-07T04:18:42;95140.63;;;8.52;72.05
34742;BME280;20968;42.696;23.360;2022-12-07T04:21:08;95135.13;;;8.52;71.98
34742;BME280;20968;42.696;23.360;2022-12-07T04:23:33;95132.81;;;8.50;71.79
34742;BME280;20968;42.696;23.360;2022-12-07T04:25:58;95134.94;;;8.55;71.18
34742;BME280;20968;42.696;23.360;2022-12-07T04:28:24;95149.91;;;8.54;71.56
34742;BME280;20968;42.696;23.360;2022-12-07T04:30:49;95145.94;;;8.55;71.88
34742;BME280;20968;42.696;23.360;2022-12-07T04:33:15;95157.47;;;8.59;72.29
34742;BME280;20968;42.696;23.360;2022-12-07T04:35:42;95148.69;;;8.55;72.07
34742;BME280;20968;42.696;23.360;2022-12-07T04:38:07;95144.97;;;8.58;71.84
34742;BME280;20968;42.696;23.360;2022-12-07T04:40:33;95144.88;;;8.53;72.02
34742;BME280;20968;42.696;23.360;2022-12-07T04:42:59;95149.16;;;8.54;71.98
34742;BME280;20968;42.696;23.360;2022-12-07T04:45:24;95153.13;;;8.53;71.81
34742;BME280;20968;42.696;23.360;2022-12-07T04:47:50;95153.72;;;8.48;71.98
34742;BME280;20968;42.696;23.360;2022-12-07T04:50:15;95163.31;;;8.52;71.39
34742;BME280;20968;42.696;23.360;2022-12-07T04:52:41;95153.72;;;8.48;72.03
34742;BME280;20968;42.696;23.360;2022-12-07T04:55:06;95160.00;;;8.49;71.79
34742;BME280;20968;42.696;23.360;2022-12-07T04:57:32;95151.75;;;8.49;71.12
34742;BME280;20968;42.696;23.360;2022-12-07T04:59:57;95150.72;;;8.46;71.86
34742;BME280;20968;42.696;23.360;2022-12-07T05:02:23;95158.63;;;8.44;72.12
34742;BME280;20968;42.696;23.360;2022-12-07T05:04:48;95160.34;;;8.42;71.43
34742;BME280;20968;42.696;23.360;2022-12-07T05:07:13;95154.53;;;8.40;71.45
34742;BME280;20968;42.696;23.360;2022-12-07T05:09:39;95160.34;;;8.42;70.92
34742;BME280;20968;42.696;23.360;2022-12-07T05:12:04;95154.53;;;8.40;71.78
34742;BME280;20968;42.696;23.360;2022-12-07T05:14:29;95164.63;;;8.34;71.84
34742;BME280;20968;42.696;23.360;2022-12-07T05:16:55;95159.16;;;8.34;71.41
34742;BME280;20968;42.696;23.360;2022-12-07T05:19:20;95160.84;;;8.31;71.56
34742;BME280;20968;42.696;23.360;2022-12-07T05:21:46;95153.66;;;8.34;71.83
34742;BME280;20968;42.696;23.360;2022-12-07T05:24:13;95153.19;;;8.35;71.96
34742;BME280;20968;42.696;23.360;2022-12-07T05:26:39;95154.72;;;8.36;72.17
34742;BME280;20968;42.696;23.360;2022-12-07T05:29:05;95161.88;;;8.34;72.36
34742;BME280;20968;42.696;23.360;2022-12-07T05:31:31;95160.38;;;8.33;72.03
34742;BME280;20968;42.696;23.360;2022-12-07T05:33:56;95163.59;;;8.31;72.47
34742;BME280;20968;42.696;23.360;2022-12-07T05:36:22;95157.50;;;8.27;72.64
34742;BME280;20968;42.696;23.360;2022-12-07T05:38:48;95160.97;;;8.28;72.83
34742;BME280;20968;42.696;23.360;2022-12-07T05:41:16;95160.06;;;8.31;71.69
34742;BME280;20968;42.696;23.360;2022-12-07T05:44:00;95161.59;;;8.32;72.15
34742;BME280;20968;42.696;23.360;2022-12-07T05:46:26;95147.13;;;8.31;72.21
34742;BME280;20968;42.696;23.360;2022-12-07T05:48:52;95160.19;;;8.36;72.03
34742;BME280;20968;42.696;23.360;2022-12-07T05:51:17;95153.41;;;8.78;82.40
34742;BME280;20968;42.696;23.360;2022-12-07T05:53:43;95154.56;;;9.47;84.78
34742;BME280;20968;42.696;23.360;2022-12-07T05:56:09;95145.13;;;9.92;82.74
34742;BME280;20968;42.696;23.360;2022-12-07T05:58:34;95138.09;;;9.76;78.29
34742;BME280;20968;42.696;23.360;2022-12-07T06:01:18;95137.53;;;9.58;76.93
34742;BME280;20968;42.696;23.360;2022-12-07T06:03:43;95150.41;;;9.52;74.48
34742;BME280;20968;42.696;23.360;2022-12-07T06:06:10;95147.47;;;9.41;73.74
34742;BME280;20968;42.696;23.360;2022-12-07T06:08:36;95146.03;;;9.31;72.71
34742;BME280;20968;42.696;23.360;2022-12-07T06:11:01;95146.84;;;9.23;72.63
34742;BME280;20968;42.696;23.360;2022-12-07T06:13:45;95148.16;;;9.13;72.04
34742;BME280;20968;42.696;23.360;2022-12-07T06:16:10;95155.03;;;9.08;71.08
34742;BME280;20968;42.696;23.360;2022-12-07T06:18:35;95156.94;;;9.02;71.46
34742;BME280;20968;42.696;23.360;2022-12-07T06:21:01;95152.34;;;8.99;70.73
34742;BME280;20968;42.696;23.360;2022-12-07T06:23:26;95148.56;;;8.97;70.48
34742;BME280;20968;42.696;23.360;2022-12-07T06:25:52;95151.19;;;8.91;70.72
34742;BME280;20968;42.696;23.360;2022-12-07T06:28:17;95150.91;;;8.89;70.63
34742;BME280;20968;42.696;23.360;2022-12-07T06:30:42;95159.03;;;8.84;70.92
34742;BME280;20968;42.696;23.360;2022-12-07T06:33:08;95156.63;;;8.77;70.72
34742;BME280;20968;42.696;23.360;2022-12-07T06:35:33;95159.25;;;8.71;72.02
34742;BME280;20968;42.696;23.360;2022-12-07T06:37:59;95171.75;;;8.72;71.62
34742;BME280;20968;42.696;23.360;2022-12-07T06:40:24;95162.28;;;8.73;71.59
34742;BME280;20968;42.696;23.360;2022-12-07T06:42:50;95173.72;;;8.72;70.89
34742;BME280;20968;42.696;23.360;2022-12-07T06:45:15;95165.19;;;8.70;70.97
34742;BME280;20968;42.696;23.360;2022-12-07T06:47:40;95167.94;;;8.70;72.16
34742;BME280;20968;42.696;23.360;2022-12-07T06:50:06;95169.63;;;8.67;71.55
34742;BME280;20968;42.696;23.360;2022-12-07T06:52:33;95174.19;;;8.70;72.16
34742;BME280;20968;42.696;23.360;2022-12-07T06:54:59;95175.72;;;8.71;71.61
34742;BME280;20968;42.696;23.360;2022-12-07T06:57:24;95167.19;;;8.69;71.95
34742;BME280;20968;42.696;23.360;2022-12-07T06:59:50;95166.72;;;8.71;71.86
34742;BME280;20968;42.696;23.360;2022-12-07T07:02:15;95171.16;;;8.68;71.57
34742;BME280;20968;42.696;23.360;2022-12-07T07:04:41;95172.22;;;8.71;72.15
34742;BME280;20968;42.696;23.360;2022-12-07T07:07:07;95172.97;;;8.71;71.56
34742;BME280;20968;42.696;23.360;2022-12-07T07:09:32;95168.38;;;8.77;71.67
34742;BME280;20968;42.696;23.360;2022-12-07T07:11:58;95165.44;;;8.81;71.38
34742;BME280;20968;42.696;23.360;2022-12-07T07:14:23;95175.78;;;8.86;71.75
34742;BME280;20968;42.696;23.360;2022-12-07T07:16:48;95175.03;;;8.85;71.84
34742;BME280;20968;42.696;23.360;2022-12-07T07:19:14;95180.22;;;8.83;71.58
34742;BME280;20968;42.696;23.360;2022-12-07T07:21:39;95178.88;;;8.79;71.34
34742;BME280;20968;42.696;23.360;2022-12-07T07:24:05;95174.19;;;8.70;71.73
34742;BME280;20968;42.696;23.360;2022-12-07T07:26:31;95175.44;;;8.69;71.57
34742;BME280;20968;42.696;23.360;2022-12-07T07:28:56;95172.50;;;8.73;71.82
34742;BME280;20968;42.696;23.360;2022-12-07T07:31:21;95178.88;;;8.79;72.05
34742;BME280;20968;42.696;23.360;2022-12-07T07:33:47;95181.16;;;8.80;71.72
34742;BME280;20968;42.696;23.360;2022-12-07T07:36:12;95178.53;;;8.86;72.08
34742;BME280;20968;42.696;23.360;2022-12-07T07:38:37;95179.88;;;8.90;72.26
34742;BME280;20968;42.696;23.360;2022-12-07T07:41:03;95188.88;;;8.91;72.63
34742;BME280;20968;42.696;23.360;2022-12-07T07:43:28;95187.00;;;8.97;72.17
34742;BME280;20968;42.696;23.360;2022-12-07T07:45:54;95186.19;;;9.05;71.25
34742;BME280;20968;42.696;23.360;2022-12-07T07:48:19;95186.91;;;9.15;71.78
34742;BME280;20968;42.696;23.360;2022-12-07T07:50:45;95171.91;;;9.16;71.08
34742;BME280;20968;42.696;23.360;2022-12-07T07:53:10;95173.25;;;9.20;71.52
34742;BME280;20968;42.696;23.360;2022-12-07T07:55:36;95181.63;;;9.26;71.32
34742;BME280;20968;42.696;23.360;2022-12-07T07:58:01;95182.59;;;9.37;70.59
34742;BME280;20968;42.696;23.360;2022-12-07T08:00:28;95179.09;;;9.36;70.85
34742;BME280;20968;42.696;23.360;2022-12-07T08:02:53;95174.94;;;9.41;70.88
34742;BME280;20968;42.696;23.360;2022-12-07T08:05:19;95177.03;;;9.46;70.38
34742;BME280;20968;42.696;23.360;2022-12-07T08:07:44;95183.19;;;9.41;70.01
34742;BME280;20968;42.696;23.360;2022-12-07T08:10:12;95180.16;;;9.39;70.55
34742;BME280;20968;42.696;23.360;2022-12-07T08:12:39;95179.66;;;9.40;69.57
34742;BME280;20968;42.696;23.360;2022-12-07T08:15:26;95181.59;;;9.49;69.72
34742;BME280;20968;42.696;23.360;2022-12-07T08:17:51;95181.00;;;9.45;69.59
34742;BME280;20968;42.696;23.360;2022-12-07T08:20:17;95181.50;;;9.58;75.64
34742;BME280;20968;42.696;23.360;2022-12-07T08:22:42;95173.56;;;9.60;74.69
34742;BME280;20968;42.696;23.360;2022-12-07T08:25:07;95174.59;;;9.62;72.57
34742;BME280;20968;42.696;23.360;2022-12-07T08:27:33;95177.16;;;9.66;71.65
34742;BME280;20968;42.696;23.360;2022-12-07T08:29:58;95169.19;;;9.68;70.75
34742;BME280;20968;42.696;23.360;2022-12-07T08:32:24;95178.69;;;9.67;70.53
34742;BME280;20968;42.696;23.360;2022-12-07T08:34:49;95179.34;;;9.62;69.62
34742;BME280;20968;42.696;23.360;2022-12-07T08:37:15;95174.78;;;9.59;69.64
34742;BME280;20968;42.696;23.360;2022-12-07T08:39:41;95176.41;;;9.80;78.39
34742;BME280;20968;42.696;23.360;2022-12-07T08:42:06;95177.22;;;10.09;76.92
34742;BME280;20968;42.696;23.360;2022-12-07T08:44:31;95166.59;;;10.02;72.83
34742;BME280;20968;42.696;23.360;2022-12-07T08:47:00;95157.13;;;10.03;71.66
34742;BME280;20968;42.696;23.360;2022-12-07T08:49:31;95159.56;;;10.01;70.78
34742;BME280;20968;42.696;23.360;2022-12-07T08:51:58;95163.56;;;10.00;69.13
34742;BME280;20968;42.696;23.360;2022-12-07T08:54:24;95147.53;;;9.99;68.91
34742;BME280;20968;42.696;23.360;2022-12-07T08:56:50;95149.69;;;9.95;69.20
34742;BME280;20968;42.696;23.360;2022-12-07T08:59:19;95152.44;;;9.95;68.67
34742;BME280;20968;42.696;23.360;2022-12-07T09:01:45;95149.22;;;9.96;68.84
34742;BME280;20968;42.696;23.360;2022-12-07T09:04:11;95149.06;;;10.00;68.82
34742;BME280;20968;42.696;23.360;2022-12-07T09:06:37;95146.59;;;10.02;68.69
34742;BME280;20968;42.696;23.360;2022-12-07T09:09:03;95143.25;;;9.98;68.05
34742;BME280;20968;42.696;23.360;2022-12-07T09:11:29;95144.69;;;10.07;67.93
34742;BME280;20968;42.696;23.360;2022-12-07T09:13:55;95132.25;;;9.98;67.91
34742;BME280;20968;42.696;23.360;2022-12-07T09:16:21;95129.03;;;9.99;68.50
34742;BME280;20968;42.696;23.360;2022-12-07T09:18:46;95132.06;;;10.01;68.76
34742;BME280;20968;42.696;23.360;2022-12-07T09:21:11;95131.88;;;10.05;68.73
34742;BME280;20968;42.696;23.360;2022-12-07T09:23:37;95127.59;;;10.04;68.66
34742;BME280;20968;42.696;23.360;2022-12-07T09:26:03;95135.84;;;10.04;68.38
34742;BME280;20968;42.696;23.360;2022-12-07T09:28:30;95130.16;;;10.07;68.24
34742;BME280;20968;42.696;23.360;2022-12-07T09:30:56;95140.63;;;10.17;68.52
34742;BME280;20968;42.696;23.360;2022-12-07T09:33:21;95131.38;;;10.20;68.10
34742;BME280;20968;42.696;23.360;2022-12-07T09:35:48;95114.41;;;10.22;68.26
34742;BME280;20968;42.696;23.360;2022-12-07T09:38:14;95108.88;;;10.22;68.22
34742;BME280;20968;42.696;23.360;2022-12-07T09:40:42;95102.72;;;10.27;68.12
34742;BME280;20968;42.696;23.360;2022-12-07T09:43:13;95101.84;;;10.35;67.93
34742;BME280;20968;42.696;23.360;2022-12-07T09:45:40;95103.75;;;10.29;68.00
34742;BME280;20968;42.696;23.360;2022-12-07T09:48:16;95096.47;;;10.26;68.12
34742;BME280;20968;42.696;23.360;2022-12-07T09:50:43;95096.75;;;10.28;68.47
34742;BME280;20968;42.696;23.360;2022-12-07T09:53:19;95099.38;;;10.37;68.13
34742;BME280;20968;42.696;23.360;2022-12-07T09:55:48;95100.69;;;10.42;68.12
34742;BME280;20968;42.696;23.360;2022-12-07T09:58:24;95096.53;;;10.46;68.02
34742;BME280;20968;42.696;23.360;2022-12-07T10:03:32;95089.69;;;10.42;67.74
34742;BME280;20968;42.696;23.360;2022-12-07T10:05:57;95085.66;;;10.57;67.30
34742;BME280;20968;42.696;23.360;2022-12-07T10:08:24;95092.84;;;10.69;66.94
34742;BME280;20968;42.696;23.360;2022-12-07T10:10:55;95084.25;;;10.82;66.99
34742;BME280;20968;42.696;23.360;2022-12-07T10:16:01;95072.03;;;10.88;66.03
34742;BME280;20968;42.696;23.360;2022-12-07T10:18:38;95076.09;;;10.92;66.01
34742;BME280;20968;42.696;23.360;2022-12-07T10:21:10;95073.69;;;11.00;66.22
34742;BME280;20968;42.696;23.360;2022-12-07T10:23:41;95063.91;;;10.99;66.11
34742;BME280;20968;42.696;23.360;2022-12-07T10:26:33;95061.97;;;11.05;66.44
34742;BME280;20968;42.696;23.360;2022-12-07T10:29:03;95059.81;;;11.14;66.25
34742;BME280;20968;42.696;23.360;2022-12-07T10:31:39;95058.00;;;11.31;65.00
34742;BME280;20968;42.696;23.360;2022-12-07T10:34:20;95054.22;;;11.29;65.83
34742;BME280;20968;42.696;23.360;2022-12-07T10:36:47;95047.47;;;11.30;65.47
34742;BME280;20968;42.696;23.360;2022-12-07T10:39:19;95046.44;;;11.27;65.89
34742;BME280;20968;42.696;23.360;2022-12-07T10:41:56;95039.63;;;11.23;65.20
34742;BME280;20968;42.696;23.360;2022-12-07T10:44:25;95032.38;;;11.25;64.64
34742;BME280;20968;42.696;23.360;2022-12-07T10:55:29;95033.63;;;11.50;65.09
34742;BME280;20968;42.696;23.360;2022-12-07T11:01:13;95024.19;;;11.56;65.41
34742;BME280;20968;42.696;23.360;2022-12-07T11:09:38;95006.63;;;11.54;65.37
34742;BME280;20968;42.696;23.360;2022-12-07T11:14:56;94993.22;;;11.41;64.79
34742;BME280;20968;42.696;23.360;2022-12-07T11:17:26;94996.44;;;11.40;65.26
34742;BME280;20968;42.696;23.360;2022-12-07T11:20:12;95000.00;;;11.46;65.29
34742;BME280;20968;42.696;23.360;2022-12-07T11:22:47;95004.06;;;11.50;65.10
34742;BME280;20968;42.696;23.360;2022-12-07T11:25:18;94987.06;;;11.52;64.53
34742;BME280;20968;42.696;23.360;2022-12-07T11:30:42;94982.47;;;11.74;64.08
34742;BME280;20968;42.696;23.360;2022-12-07T11:33:19;94978.22;;;11.78;64.29
34742;BME280;20968;42.696;23.360;2022-12-07T11:41:06;94960.25;;;12.88;61.79
34742;BME280;20968;42.696;23.360;2022-12-07T11:43:52;94968.63;;;13.05;61.30
34742;BME280;20968;42.696;23.360;2022-12-07T11:46:22;94966.38;;;13.14;60.37
34742;BME280;20968;42.696;23.360;2022-12-07T11:49:09;94964.59;;;13.06;59.99
34742;BME280;20968;42.696;23.360;2022-12-07T11:51:38;94963.59;;;13.25;59.96
34742;BME280;20968;42.696;23.360;2022-12-07T11:54:14;94961.91;;;13.71;59.26
34742;BME280;20968;42.696;23.360;2022-12-07T11:56:42;94961.38;;;14.00;57.26
34742;BME280;20968;42.696;23.360;2022-12-07T11:59:17;94961.34;;;14.33;56.90
34742;BME280;20968;42.696;23.360;2022-12-07T12:07:23;94946.28;;;15.36;53.94
34742;BME280;20968;42.696;23.360;2022-12-07T12:15:23;94926.41;;;14.81;53.48
34742;BME280;20968;42.696;23.360;2022-12-07T12:21:27;94924.13;;;14.01;55.62
34742;BME280;20968;42.696;23.360;2022-12-07T12:24:04;94928.94;;;13.90;55.86
34742;BME280;20968;42.696;23.360;2022-12-07T12:26:36;94929.94;;;13.76;56.87
34742;BME280;20968;42.696;23.360;2022-12-07T12:29:39;94925.19;;;13.65;57.35
34742;BME280;20968;42.696;23.360;2022-12-07T12:32:20;94922.41;;;13.43;58.03
34742;BME280;20968;42.696;23.360;2022-12-07T12:42:51;94901.53;;;13.10;60.10
34742;BME280;20968;42.696;23.360;2022-12-07T12:50:48;94893.50;;;13.12;59.55
34742;BME280;20968;42.696;23.360;2022-12-07T12:53:25;94888.22;;;13.14;59.94
34742;BME280;20968;42.696;23.360;2022-12-07T13:00:46;94894.72;;;13.05;59.96
34742;BME280;20968;42.696;23.360;2022-12-07T13:03:50;94891.97;;;12.94;59.93
34742;BME280;20968;42.696;23.360;2022-12-07T13:06:35;94902.69;;;12.81;60.65
34742;BME280;20968;42.696;23.360;2022-12-07T13:09:03;94902.22;;;12.83;60.12
34742;BME280;20968;42.696;23.360;2022-12-07T13:11:40;94903.69;;;12.73;61.23
34742;BME280;20968;42.696;23.360;2022-12-07T13:19:58;94898.66;;;12.71;61.11
34742;BME280;20968;42.696;23.360;2022-12-07T13:22:39;94895.88;;;12.66;61.18
34742;BME280;20968;42.696;23.360;2022-12-07T13:25:22;94892.59;;;12.62;61.37
34742;BME280;20968;42.696;23.360;2022-12-07T13:33:20;94886.28;;;12.50;62.08
34742;BME280;20968;42.696;23.360;2022-12-07T13:35:45;94879.81;;;12.70;68.44
34742;BME280;20968;42.696;23.360;2022-12-07T13:38:32;94875.78;;;12.71;64.39
34742;BME280;20968;42.696;23.360;2022-12-07T13:43:30;94888.09;;;12.70;62.89
34742;BME280;20968;42.696;23.360;2022-12-07T13:45:57;94882.09;;;12.77;62.01
34742;BME280;20968;42.696;23.360;2022-12-07T13:48:44;94872.78;;;12.74;62.26
34742;BME280;20968;42.696;23.360;2022-12-07T13:51:21;94875.03;;;12.76;62.42
34742;BME280;20968;42.696;23.360;2022-12-07T13:53:50;94876.31;;;12.75;62.17
34742;BME280;20968;42.696;23.360;2022-12-07T13:56:15;94872.78;;;12.69;61.69
34742;BME280;20968;42.696;23.360;2022-12-07T13:58:41;94865.50;;;12.71;61.78
34742;BME280;20968;42.696;23.360;2022-12-07T14:01:07;94859.22;;;12.71;62.07
34742;BME280;20968;42.696;23.360;2022-12-07T14:03:34;94872.78;;;12.74;62.38
34742;BME280;20968;42.696;23.360;2022-12-07T14:06:06;94877.81;;;12.76;61.82
34742;BME280;20968;42.696;23.360;2022-12-07T14:08:32;94870.25;;;12.65;62.28
34742;BME280;20968;42.696;23.360;2022-12-07T14:10:58;94884.34;;;12.73;62.24
34742;BME280;20968;42.696;23.360;2022-12-07T14:13:31;94874.78;;;12.63;62.36
34742;BME280;20968;42.696;23.360;2022-12-07T14:16:00;94880.28;;;12.57;62.71
34742;BME280;20968;42.696;23.360;2022-12-07T14:18:30;94872.50;;;12.56;62.85
34742;BME280;20968;42.696;23.360;2022-12-07T14:21:21;94887.06;;;12.51;62.92
34742;BME280;20968;42.696;23.360;2022-12-07T14:26:34;94879.50;;;12.41;62.87
34742;BME280;20968;42.696;23.360;2022-12-07T14:31:51;94885.50;;;12.34;63.28
34742;BME280;20968;42.696;23.360;2022-12-07T14:34:19;94879.69;;;12.32;63.25
34742;BME280;20968;42.696;23.360;2022-12-07T14:36:44;94885.94;;;12.27;63.16
34742;BME280;20968;42.696;23.360;2022-12-07T14:39:09;94883.91;;;12.22;63.51
34742;BME280;20968;42.696;23.360;2022-12-07T14:41:35;94889.91;;;12.15;63.21
34742;BME280;20968;42.696;23.360;2022-12-07T14:44:16;94885.09;;;12.04;64.15
34742;BME280;20968;42.696;23.360;2022-12-07T14:46:42;94885.81;;;11.94;65.12
34742;BME280;20968;42.696;23.360;2022-12-07T14:49:09;94883.50;;;11.87;64.46
34742;BME280;20968;42.696;23.360;2022-12-07T14:51:37;94877.22;;;11.86;64.55
34742;BME280;20968;42.696;23.360;2022-12-07T14:54:05;94882.22;;;11.82;64.59
34742;BME280;20968;42.696;23.360;2022-12-07T14:56:31;94885.22;;;11.79;64.56
34742;BME280;20968;42.696;23.360;2022-12-07T14:58:57;94887.72;;;11.77;65.15
34742;BME280;20968;42.696;23.360;2022-12-07T15:01:22;94887.66;;;11.71;65.32
34742;BME280;20968;42.696;23.360;2022-12-07T15:03:48;94886.66;;;11.69;65.21